Wetterdaten: Woche 04.08.14 - 10.08.14 (KW32)
Datum Zeit Temperatur Luftfeuchte Luftdruck Niederschlag Windrichtung Sonnenschein Solar Wind
04.08.2014 00:00 15,6 C 98 % 1012,7 hPa 0,0 l/m S-SW 0,00 h 0 W/m 4,0 km/h (1 Bft)
04.08.2014 01:00 14,8 C 99 % 1012,8 hPa 0,0 l/m S-SW 0,00 h 0 W/m 0,9 km/h (0 Bft)
04.08.2014 02:00 14,4 C 99 % 1013,0 hPa 0,0 l/m N 0,00 h 0 W/m 0,8 km/h (0 Bft)
04.08.2014 03:00 14,0 C 99 % 1013,0 hPa 0,0 l/m N 0,00 h 0 W/m 0,4 km/h (0 Bft)
04.08.2014 04:00 14,1 C 100 % 1013,2 hPa 0,0 l/m N 0,00 h 0 W/m 0,3 km/h (0 Bft)
04.08.2014 05:00 14,4 C 100 % 1013,3 hPa 0,0 l/m S-SW 0,00 h 0 W/m 4,1 km/h (1 Bft)
04.08.2014 06:00 14,5 C 100 % 1013,5 hPa 0,0 l/m S-SW 0,00 h 12 W/m 7,8 km/h (2 Bft)
04.08.2014 07:00 14,5 C 100 % 1013,7 hPa 0,2 l/m S-SW 0,00 h 43 W/m 4,1 km/h (1 Bft)
04.08.2014 08:00 15,1 C 100 % 1014,0 hPa 0,0 l/m S-SW 0,08 h 124 W/m 4,1 km/h (1 Bft)
04.08.2014 09:00 16,1 C 99 % 1014,5 hPa 0,0 l/m S-SW 0,08 h 195 W/m 6,5 km/h (2 Bft)
04.08.2014 10:00 18,1 C 92 % 1014,4 hPa 0,0 l/m W-SW 0,83 h 589 W/m 8,3 km/h (2 Bft)
04.08.2014 11:00 20,1 C 81 % 1014,2 hPa 0,0 l/m SW 0,83 h 670 W/m 5,6 km/h (1 Bft)
04.08.2014 12:00 21,0 C 78 % 1014,0 hPa 0,0 l/m SW 0,42 h 431 W/m 9,8 km/h (2 Bft)
04.08.2014 13:00 22,0 C 76 % 1013,6 hPa 0,0 l/m SW 0,50 h 599 W/m 11,7 km/h (2 Bft)
04.08.2014 14:00 23,4 C 65 % 1013,3 hPa 0,0 l/m W-SW 0,75 h 775 W/m 11,0 km/h (2 Bft)
04.08.2014 15:00 24,6 C 55 % 1013,0 hPa 0,0 l/m W 0,92 h 734 W/m 12,9 km/h (3 Bft)
04.08.2014 16:00 24,9 C 52 % 1013,0 hPa 0,0 l/m W 0,75 h 567 W/m 6,8 km/h (2 Bft)
04.08.2014 17:00 24,0 C 56 % 1012,9 hPa 0,0 l/m SW 0,33 h 230 W/m 7,6 km/h (2 Bft)
04.08.2014 18:00 23,9 C 58 % 1012,6 hPa 0,0 l/m W 1,00 h 335 W/m 7,1 km/h (2 Bft)
04.08.2014 19:00 22,4 C 66 % 1012,7 hPa 0,0 l/m W 0,17 h 87 W/m 4,1 km/h (1 Bft)
04.08.2014 20:00 20,2 C 77 % 1013,0 hPa 0,0 l/m W 0,00 h 17 W/m 5,6 km/h (1 Bft)
04.08.2014 21:00 18,3 C 81 % 1014,4 hPa 1,4 l/m N-NW 0,00 h 0 W/m 11,0 km/h (2 Bft)
04.08.2014 22:00 16,0 C 93 % 1015,2 hPa 0,0 l/m N 0,00 h 0 W/m 3,6 km/h (1 Bft)
04.08.2014 23:00 15,7 C 95 % 1015,9 hPa 0,0 l/m S-SW 0,00 h 0 W/m 3,1 km/h (1 Bft)
05.08.2014 00:00 15,6 C 97 % 1016,0 hPa 0,0 l/m N 0,00 h 0 W/m 0,7 km/h (0 Bft)
05.08.2014 01:00 15,7 C 97 % 1015,8 hPa 0,0 l/m S-SW 0,00 h 0 W/m 3,3 km/h (1 Bft)
05.08.2014 02:00 15,5 C 97 % 1015,6 hPa 0,0 l/m N 0,00 h 0 W/m 0,3 km/h (0 Bft)
05.08.2014 03:00 15,1 C 97 % 1015,6 hPa 0,0 l/m N 0,00 h 0 W/m 0,5 km/h (0 Bft)
05.08.2014 04:00 14,7 C 98 % 1015,8 hPa 0,0 l/m N 0,00 h 0 W/m 0,1 km/h (0 Bft)
05.08.2014 05:00 14,0 C 98 % 1015,9 hPa 0,0 l/m N 0,00 h 0 W/m 0,5 km/h (0 Bft)
05.08.2014 06:00 13,9 C 99 % 1015,9 hPa 0,0 l/m N 0,00 h 13 W/m 0,1 km/h (0 Bft)
05.08.2014 07:00 14,6 C 99 % 1016,0 hPa 0,0 l/m N 0,17 h 87 W/m 0,1 km/h (0 Bft)
05.08.2014 08:00 16,0 C 95 % 1016,0 hPa 0,0 l/m S-SW 0,08 h 135 W/m 2,7 km/h (1 Bft)
05.08.2014 09:00 17,4 C 86 % 1016,2 hPa 0,0 l/m W 0,25 h 271 W/m 6,5 km/h (2 Bft)
05.08.2014 10:00 18,0 C 80 % 1016,2 hPa 0,0 l/m W 0,00 h 176 W/m 5,6 km/h (1 Bft)
05.08.2014 11:00 19,2 C 76 % 1015,8 hPa 0,0 l/m S-SO 0,58 h 529 W/m 5,6 km/h (1 Bft)
05.08.2014 12:00 18,3 C 83 % 1015,8 hPa 0,0 l/m O-NO 0,08 h 189 W/m 5,9 km/h (2 Bft)
05.08.2014 13:00 19,8 C 77 % 1015,7 hPa 0,0 l/m O-SO 0,42 h 565 W/m 8,5 km/h (2 Bft)
05.08.2014 14:00 20,8 C 72 % 1015,5 hPa 0,0 l/m O 0,08 h 225 W/m 8,2 km/h (2 Bft)
05.08.2014 15:00 20,9 C 72 % 1015,4 hPa 0,0 l/m SO 0,08 h 167 W/m 5,2 km/h (1 Bft)
05.08.2014 16:00 20,3 C 74 % 1015,6 hPa 0,0 l/m SO 0,00 h 122 W/m 2,8 km/h (1 Bft)
05.08.2014 17:00 21,5 C 65 % 1015,4 hPa 0,0 l/m N-NO 0,75 h 465 W/m 11,9 km/h (2 Bft)
05.08.2014 18:00 21,4 C 63 % 1015,7 hPa 0,0 l/m NO 0,67 h 246 W/m 13,0 km/h (3 Bft)
05.08.2014 19:00 20,4 C 65 % 1016,2 hPa 0,0 l/m N-NO 0,67 h 127 W/m 7,5 km/h (2 Bft)
05.08.2014 20:00 18,2 C 75 % 1016,6 hPa 0,0 l/m N-NO 0,08 h 19 W/m 3,2 km/h (1 Bft)
05.08.2014 21:00 15,6 C 87 % 1017,2 hPa 0,0 l/m N 0,00 h 0 W/m 0,5 km/h (0 Bft)
05.08.2014 22:00 14,3 C 92 % 1017,5 hPa 0,0 l/m N 0,00 h 0 W/m 0,4 km/h (0 Bft)
05.08.2014 23:00 13,5 C 94 % 1017,7 hPa 0,0 l/m N 0,00 h 0 W/m 0,9 km/h (0 Bft)
06.08.2014 00:00 13,1 C 95 % 1017,7 hPa 0,0 l/m N-NO 0,00 h 0 W/m 1,5 km/h (1 Bft)
06.08.2014 01:00 13,0 C 94 % 1017,5 hPa 0,0 l/m N-NO 0,00 h 0 W/m 2,5 km/h (1 Bft)
06.08.2014 02:00 12,3 C 94 % 1017,0 hPa 0,0 l/m N 0,00 h 0 W/m 0,0 km/h (0 Bft)
06.08.2014 03:00 12,0 C 96 % 1017,0 hPa 0,0 l/m N-NO 0,00 h 0 W/m 2,7 km/h (1 Bft)
06.08.2014 04:00 11,9 C 96 % 1016,9 hPa 0,0 l/m N 0,00 h 0 W/m 2,0 km/h (1 Bft)
06.08.2014 05:00 11,3 C 97 % 1016,8 hPa 0,0 l/m N 0,00 h 0 W/m 0,1 km/h (0 Bft)
06.08.2014 06:00 10,7 C 98 % 1016,8 hPa 0,0 l/m N 0,00 h 19 W/m 0,0 km/h (0 Bft)
06.08.2014 07:00 12,6 C 98 % 1016,5 hPa 0,0 l/m N-NO 0,17 h 109 W/m 1,2 km/h (1 Bft)
06.08.2014 08:00 15,1 C 92 % 1016,1 hPa 0,0 l/m N-NO 1,00 h 260 W/m 3,1 km/h (1 Bft)
06.08.2014 09:00 17,0 C 85 % 1015,7 hPa 0,0 l/m O-NO 1,00 h 352 W/m 5,2 km/h (1 Bft)
06.08.2014 10:00 18,9 C 78 % 1015,5 hPa 0,0 l/m O-NO 1,00 h 591 W/m 5,9 km/h (2 Bft)
06.08.2014 11:00 20,2 C 70 % 1015,2 hPa 0,0 l/m N-NO 0,42 h 496 W/m 9,0 km/h (2 Bft)
06.08.2014 12:00 21,2 C 62 % 1014,9 hPa 0,0 l/m O-SO 0,50 h 567 W/m 10,5 km/h (2 Bft)
06.08.2014 13:00 22,6 C 56 % 1014,5 hPa 0,0 l/m O 0,75 h 779 W/m 10,5 km/h (2 Bft)
06.08.2014 14:00 23,2 C 53 % 1014,1 hPa 0,0 l/m NO 0,58 h 601 W/m 9,0 km/h (2 Bft)
06.08.2014 15:00 22,8 C 54 % 1013,7 hPa 0,0 l/m NO 0,50 h 513 W/m 7,9 km/h (2 Bft)
06.08.2014 16:00 23,5 C 47 % 1013,6 hPa 0,0 l/m O-SO 0,58 h 436 W/m 8,2 km/h (2 Bft)
06.08.2014 17:00 22,6 C 53 % 1013,2 hPa 0,0 l/m SO 0,33 h 224 W/m 2,8 km/h (1 Bft)
06.08.2014 18:00 21,6 C 63 % 1012,9 hPa 0,0 l/m S-SW 0,00 h 110 W/m 4,1 km/h (1 Bft)
06.08.2014 19:00 20,3 C 69 % 1013,0 hPa 0,0 l/m W-SW 0,00 h 42 W/m 5,4 km/h (1 Bft)
06.08.2014 20:00 19,5 C 68 % 1013,1 hPa 0,0 l/m W-SW 0,00 h 10 W/m 6,7 km/h (2 Bft)
06.08.2014 21:00 19,0 C 69 % 1013,5 hPa 0,0 l/m W-NW 0,00 h 0 W/m 8,8 km/h (2 Bft)
06.08.2014 22:00 18,4 C 72 % 1013,6 hPa 0,0 l/m NW 0,00 h 0 W/m 5,1 km/h (1 Bft)
06.08.2014 23:00 17,5 C 77 % 1013,8 hPa 0,0 l/m NW 0,00 h 0 W/m 3,1 km/h (1 Bft)
07.08.2014 00:00 16,9 C 83 % 1014,0 hPa 0,0 l/m N 0,00 h 0 W/m 0,3 km/h (0 Bft)
07.08.2014 01:00 16,5 C 86 % 1013,7 hPa 0,0 l/m W-NW 0,00 h 0 W/m 2,9 km/h (1 Bft)
07.08.2014 02:00 16,2 C 86 % 1013,6 hPa 0,0 l/m W-NW 0,00 h 0 W/m 2,8 km/h (1 Bft)
07.08.2014 03:00 15,9 C 88 % 1013,2 hPa 0,0 l/m N 0,00 h 0 W/m 1,2 km/h (1 Bft)
07.08.2014 04:00 15,5 C 90 % 1013,2 hPa 0,0 l/m N 0,00 h 0 W/m 0,5 km/h (0 Bft)
07.08.2014 05:00 15,1 C 92 % 1013,2 hPa 0,0 l/m N 0,00 h 0 W/m 0,5 km/h (0 Bft)
07.08.2014 06:00 15,0 C 93 % 1013,3 hPa 0,0 l/m N 0,00 h 17 W/m 0,0 km/h (0 Bft)
07.08.2014 07:00 15,7 C 92 % 1013,1 hPa 0,0 l/m N 0,00 h 48 W/m 0,1 km/h (0 Bft)
07.08.2014 08:00 16,7 C 89 % 1013,1 hPa 0,0 l/m N 0,00 h 116 W/m 1,1 km/h (0 Bft)
07.08.2014 09:00 18,0 C 84 % 1013,3 hPa 0,0 l/m W 0,33 h 292 W/m 5,7 km/h (1 Bft)
07.08.2014 10:00 19,7 C 77 % 1013,3 hPa 0,0 l/m W-SW 0,58 h 423 W/m 10,5 km/h (2 Bft)
07.08.2014 11:00 20,6 C 72 % 1013,1 hPa 0,0 l/m SW 0,50 h 483 W/m 9,3 km/h (2 Bft)
07.08.2014 12:00 21,9 C 66 % 1012,9 hPa 0,0 l/m SW 0,42 h 525 W/m 9,1 km/h (2 Bft)
07.08.2014 13:00 22,3 C 64 % 1012,5 hPa 0,0 l/m W 0,08 h 296 W/m 9,1 km/h (2 Bft)
07.08.2014 14:00 18,5 C 83 % 1012,7 hPa 6,0 l/m N 0,00 h 134 W/m 12,6 km/h (3 Bft)
07.08.2014 15:00 18,8 C 86 % 1012,8 hPa 0,2 l/m NO 0,58 h 532 W/m 7,6 km/h (2 Bft)
07.08.2014 16:00 21,2 C 73 % 1012,5 hPa 0,0 l/m NO 0,50 h 521 W/m 7,1 km/h (2 Bft)
07.08.2014 17:00 21,6 C 72 % 1012,3 hPa 0,0 l/m O-SO 0,25 h 221 W/m 9,9 km/h (2 Bft)
07.08.2014 18:00 21,4 C 74 % 1012,4 hPa 0,0 l/m O-SO 0,42 h 200 W/m 5,7 km/h (1 Bft)
07.08.2014 19:00 20,2 C 80 % 1012,6 hPa 0,0 l/m O-SO 0,50 h 75 W/m 2,8 km/h (1 Bft)
07.08.2014 20:00 19,2 C 87 % 1012,8 hPa 0,0 l/m O-SO 0,00 h 18 W/m 2,9 km/h (1 Bft)
07.08.2014 21:00 17,0 C 95 % 1013,5 hPa 0,0 l/m N 0,00 h 0 W/m 0,5 km/h (0 Bft)
07.08.2014 22:00 16,0 C 96 % 1013,5 hPa 0,0 l/m N 0,00 h 0 W/m 0,5 km/h (0 Bft)
07.08.2014 23:00 15,4 C 97 % 1013,8 hPa 0,0 l/m O-SO 0,00 h 0 W/m 0,8 km/h (0 Bft)
08.08.2014 00:00 14,8 C 98 % 1013,9 hPa 0,0 l/m N 0,00 h 0 W/m 0,1 km/h (0 Bft)
08.08.2014 01:00 14,3 C 98 % 1013,8 hPa 0,0 l/m O-SO 0,00 h 0 W/m 0,3 km/h (0 Bft)
08.08.2014 02:00 13,9 C 98 % 1013,7 hPa 0,0 l/m N 0,00 h 0 W/m 0,0 km/h (0 Bft)
08.08.2014 03:00 13,4 C 98 % 1013,6 hPa 0,0 l/m N 0,00 h 0 W/m 0,0 km/h (0 Bft)
08.08.2014 04:00 12,7 C 99 % 1013,3 hPa 0,0 l/m N 0,00 h 0 W/m 0,0 km/h (0 Bft)
08.08.2014 05:00 12,6 C 99 % 1013,4 hPa 0,0 l/m N 0,00 h 0 W/m 0,0 km/h (0 Bft)
08.08.2014 06:00 12,2 C 99 % 1013,5 hPa 0,0 l/m N 0,00 h 16 W/m 0,4 km/h (0 Bft)
08.08.2014 07:00 13,1 C 100 % 1013,4 hPa 0,0 l/m N 0,25 h 99 W/m 0,9 km/h (0 Bft)
08.08.2014 08:00 15,6 C 96 % 1013,3 hPa 0,0 l/m O-SO 0,58 h 228 W/m 0,7 km/h (0 Bft)
08.08.2014 09:00 17,8 C 89 % 1013,1 hPa 0,0 l/m O-SO 0,58 h 382 W/m 3,6 km/h (1 Bft)
08.08.2014 10:00 20,1 C 78 % 1012,8 hPa 0,0 l/m O-SO 1,00 h 531 W/m 7,4 km/h (2 Bft)
08.08.2014 11:00 21,9 C 71 % 1012,4 hPa 0,0 l/m O-SO 1,00 h 703 W/m 7,1 km/h (2 Bft)
08.08.2014 12:00 23,3 C 65 % 1012,0 hPa 0,0 l/m SO 1,00 h 736 W/m 8,6 km/h (2 Bft)
08.08.2014 13:00 24,0 C 63 % 1011,6 hPa 0,0 l/m S 0,83 h 675 W/m 9,7 km/h (2 Bft)
08.08.2014 14:00 24,7 C 59 % 1011,0 hPa 0,0 l/m SW 0,75 h 549 W/m 9,9 km/h (2 Bft)
08.08.2014 15:00 25,2 C 54 % 1010,5 hPa 0,0 l/m S 0,42 h 431 W/m 6,8 km/h (2 Bft)
08.08.2014 16:00 25,4 C 54 % 1010,1 hPa 0,0 l/m W-SW 0,67 h 467 W/m 7,9 km/h (2 Bft)
08.08.2014 17:00 26,2 C 51 % 1009,5 hPa 0,0 l/m W 1,00 h 531 W/m 9,1 km/h (2 Bft)
08.08.2014 18:00 25,3 C 56 % 1008,9 hPa 0,0 l/m W 0,42 h 216 W/m 7,8 km/h (2 Bft)
08.08.2014 19:00 23,4 C 65 % 1008,6 hPa 0,0 l/m SW 0,00 h 68 W/m 3,6 km/h (1 Bft)
08.08.2014 20:00 21,7 C 76 % 1008,1 hPa 0,0 l/m N 0,00 h 16 W/m 0,1 km/h (0 Bft)
08.08.2014 21:00 20,4 C 81 % 1008,5 hPa 0,0 l/m N 0,00 h 0 W/m 0,0 km/h (0 Bft)
08.08.2014 22:00 19,5 C 85 % 1008,2 hPa 0,0 l/m N 0,00 h 0 W/m 0,0 km/h (0 Bft)
08.08.2014 23:00 18,6 C 88 % 1008,3 hPa 0,0 l/m SW 0,00 h 0 W/m 1,3 km/h (1 Bft)
09.08.2014 00:00 17,9 C 91 % 1008,1 hPa 0,0 l/m SW 0,00 h 0 W/m 2,1 km/h (1 Bft)
09.08.2014 01:00 18,1 C 91 % 1008,0 hPa 0,0 l/m SW 0,00 h 0 W/m 2,9 km/h (1 Bft)
09.08.2014 02:00 18,0 C 94 % 1007,5 hPa 0,0 l/m N 0,00 h 0 W/m 0,8 km/h (0 Bft)
09.08.2014 03:00 17,6 C 94 % 1008,0 hPa 0,0 l/m SW 0,00 h 0 W/m 7,6 km/h (2 Bft)
09.08.2014 04:00 19,3 C 81 % 1008,8 hPa 0,0 l/m W-SW 0,00 h 0 W/m 20,9 km/h (4 Bft)
09.08.2014 05:00 18,8 C 81 % 1008,6 hPa 0,0 l/m SW 0,00 h 0 W/m 13,3 km/h (3 Bft)
09.08.2014 06:00 18,1 C 85 % 1009,3 hPa 0,0 l/m W-SW 0,00 h 24 W/m 14,6 km/h (3 Bft)
09.08.2014 07:00 18,6 C 81 % 1009,6 hPa 0,0 l/m W-SW 0,00 h 52 W/m 21,7 km/h (4 Bft)
09.08.2014 08:00 18,7 C 80 % 1010,0 hPa 0,0 l/m W-SW 0,00 h 52 W/m 23,2 km/h (4 Bft)
09.08.2014 09:00 18,7 C 81 % 1010,8 hPa 0,0 l/m W-SW 0,08 h 165 W/m 27,5 km/h (4 Bft)
09.08.2014 10:00 19,3 C 80 % 1011,5 hPa 0,0 l/m W-SW 0,00 h 177 W/m 22,5 km/h (4 Bft)
09.08.2014 11:00 18,7 C 86 % 1012,2 hPa 0,2 l/m W-SW 0,00 h 134 W/m 16,6 km/h (3 Bft)
09.08.2014 12:00 20,1 C 83 % 1012,5 hPa 0,0 l/m SW 0,17 h 360 W/m 18,1 km/h (3 Bft)
09.08.2014 13:00 21,7 C 75 % 1012,4 hPa 0,0 l/m W-SW 0,42 h 411 W/m 18,2 km/h (3 Bft)
09.08.2014 14:00 22,3 C 72 % 1012,5 hPa 0,0 l/m W-SW 0,33 h 382 W/m 17,6 km/h (3 Bft)
09.08.2014 15:00 22,7 C 70 % 1012,3 hPa 0,0 l/m W-SW 0,25 h 363 W/m 18,8 km/h (3 Bft)
09.08.2014 16:00 23,2 C 68 % 1012,1 hPa 0,0 l/m W-SW 0,67 h 452 W/m 16,2 km/h (3 Bft)
09.08.2014 17:00 24,1 C 64 % 1011,7 hPa 0,0 l/m S-SW 0,67 h 418 W/m 15,4 km/h (3 Bft)
09.08.2014 18:00 24,2 C 64 % 1011,5 hPa 0,0 l/m SW 0,83 h 321 W/m 13,0 km/h (3 Bft)
09.08.2014 19:00 22,6 C 71 % 1011,4 hPa 0,0 l/m S-SW 0,33 h 66 W/m 6,9 km/h (2 Bft)
09.08.2014 20:00 19,9 C 83 % 1011,3 hPa 0,0 l/m N 0,00 h 13 W/m 0,3 km/h (0 Bft)
09.08.2014 21:00 18,1 C 90 % 1011,6 hPa 0,0 l/m S-SW 0,00 h 0 W/m 0,7 km/h (0 Bft)
09.08.2014 22:00 17,2 C 92 % 1011,6 hPa 0,0 l/m N 0,00 h 0 W/m 0,7 km/h (0 Bft)
09.08.2014 23:00 16,7 C 94 % 1010,9 hPa 0,0 l/m N 0,00 h 0 W/m 0,9 km/h (0 Bft)
10.08.2014 00:00 16,2 C 95 % 1010,2 hPa 0,0 l/m N 0,00 h 0 W/m 0,7 km/h (0 Bft)
10.08.2014 01:00 16,0 C 95 % 1010,3 hPa 0,0 l/m W 0,00 h 0 W/m 6,8 km/h (2 Bft)
10.08.2014 02:00 17,3 C 92 % 1011,0 hPa 3,0 l/m W-NW 0,00 h 0 W/m 15,2 km/h (3 Bft)
10.08.2014 03:00 16,6 C 96 % 1011,0 hPa 1,0 l/m N-NW 0,00 h 0 W/m 13,2 km/h (3 Bft)
10.08.2014 04:00 16,3 C 97 % 1010,4 hPa 0,0 l/m S 0,00 h 0 W/m 2,0 km/h (1 Bft)
10.08.2014 05:00 16,0 C 98 % 1010,2 hPa 0,0 l/m S-SW 0,00 h 0 W/m 3,9 km/h (1 Bft)
10.08.2014 06:00 15,8 C 99 % 1010,2 hPa 0,0 l/m S-SW 0,00 h 11 W/m 2,5 km/h (1 Bft)
10.08.2014 07:00 16,0 C 99 % 1010,2 hPa 0,0 l/m W-NW 0,33 h 93 W/m 3,6 km/h (1 Bft)
10.08.2014 08:00 17,1 C 98 % 1010,4 hPa 1,8 l/m W-NW 0,08 h 70 W/m 12,3 km/h (3 Bft)
10.08.2014 09:00 18,4 C 95 % 1009,9 hPa 0,0 l/m W-NW 0,25 h 137 W/m 2,8 km/h (1 Bft)
10.08.2014 10:00 18,3 C 96 % 1010,4 hPa 0,0 l/m W-NW 0,00 h 124 W/m 4,1 km/h (1 Bft)
10.08.2014 11:00 20,9 C 89 % 1009,7 hPa 0,0 l/m SW 0,92 h 649 W/m 15,6 km/h (3 Bft)
10.08.2014 12:00 23,1 C 77 % 1009,0 hPa 0,0 l/m S-SW 1,00 h 762 W/m 16,0 km/h (3 Bft)
10.08.2014 13:00 25,0 C 69 % 1008,3 hPa 0,0 l/m SW 0,83 h 698 W/m 10,9 km/h (2 Bft)
10.08.2014 14:00 26,0 C 64 % 1007,8 hPa 0,0 l/m W-SW 0,50 h 528 W/m 8,2 km/h (2 Bft)
10.08.2014 15:00 26,9 C 58 % 1007,3 hPa 0,0 l/m S 0,58 h 488 W/m 9,3 km/h (2 Bft)
10.08.2014 16:00 26,8 C 60 % 1006,9 hPa 0,0 l/m S 0,33 h 354 W/m 6,1 km/h (2 Bft)
10.08.2014 17:00 26,8 C 61 % 1005,9 hPa 0,0 l/m S 0,08 h 215 W/m 10,2 km/h (2 Bft)
10.08.2014 18:00 26,5 C 63 % 1005,2 hPa 0,0 l/m S 0,50 h 202 W/m 7,6 km/h (2 Bft)
10.08.2014 19:00 24,8 C 75 % 1005,0 hPa 0,0 l/m N 0,00 h 41 W/m 2,5 km/h (1 Bft)
10.08.2014 20:00 22,3 C 85 % 1005,9 hPa 0,4 l/m W-NW 0,00 h 6 W/m 8,0 km/h (2 Bft)
10.08.2014 21:00 21,2 C 85 % 1006,9 hPa 0,0 l/m SW 0,00 h 0 W/m 11,4 km/h (2 Bft)
10.08.2014 22:00 20,1 C 87 % 1007,4 hPa 5,6 l/m SW 0,00 h 0 W/m 16,5 km/h (3 Bft)
10.08.2014 23:00 17,6 C 94 % 1009,2 hPa 3,6 l/m SW 0,00 h 0 W/m 11,0 km/h (2 Bft)
Min-Datum _ 06.08.14 06.08.14 10.08.14 - - - - 04.08.14
_ Min-Zeit 06:25 16:45 19:00 - - - - 00:20
Minimum _ 10,5 C 45 % 1004,8 hPa - - - - 0,0 km/h (0 Bft)
Max-Datum _ 10.08.14 04.08.14 06.08.14 07.08.14 - 04.08.14 10.08.14 10.08.14
_ Max-Zeit 15:20 00:50 00:30 14:20 - 08:10 13:45 22:50
Maximum _ 27,6 C 100 % 1017,9 hPa 6,0 l/m - 0,08 h 1021 W/m 64,4 km/h
SW (8 Bft)
Durchschnitt _ 18,7 C 82 % 1012,7 hPa #23,4 l/m SW #39:15 h 297 W/m 6,2 km/h (2 Bft)